Time;durP1;ratioP1;P1;durP2;ratioP2;P2;SDS_P1;SDS_P2;PMS_P1;PMS_P2;Temp;Humidity;BMP_temperature;BMP_pressure;BME280_temperature;BME280_humidity;BME280_pressure;Samples;Min_cycle;Max_cycle;Signal;HPM_P1;HPM_P2
2021/11/11 00:00:34;;;;;;;36.47;15.63;;;;;;;-149.78;100.00;50408.84;5063074;28;20028;-62
2021/11/11 00:03:00;;;;;;;45.55;18.23;;;;;;;-149.78;100.00;50440.16;5056205;28;20037;-62
2021/11/11 00:05:27;;;;;;;46.80;17.23;;;;;;;-149.78;100.00;50424.50;5066797;28;20473;-62
2021/11/11 00:07:53;;;;;;;39.80;16.92;;;;;;;-149.78;100.00;50451.88;5067741;28;20460;-62
2021/11/11 00:10:22;;;;;;;38.33;15.27;;;;;;;-149.78;100.00;50467.53;5052005;28;20029;-62
2021/11/11 00:12:49;;;;;;;40.47;14.77;;;;;;;-149.78;100.00;50436.25;5060300;28;20558;-62
2021/11/11 00:15:16;;;;;;;35.75;15.15;;;;;;;-149.78;100.00;50471.44;5063189;28;20346;-62
2021/11/11 00:17:42;;;;;;;35.63;14.48;;;;;;;-149.78;100.00;50401.03;5067628;28;20035;-62
2021/11/11 00:20:11;;;;;;;43.22;16.02;;;;;;;-149.78;100.00;50424.50;5056966;28;20120;-64
2021/11/11 00:22:38;;;;;;;40.03;16.38;;;;;;;-149.78;100.00;50440.16;5064270;28;20028;-64
2021/11/11 00:25:05;;;;;;;36.75;15.50;;;;;;;-149.78;100.00;50444.06;5055699;28;20478;-64
2021/11/11 00:27:31;;;;;;;39.55;15.40;;;;;;;-149.78;100.00;50459.72;5061111;28;20052;-64
2021/11/11 00:29:56;;;;;;;52.78;16.55;;;;;;;-149.78;100.00;50420.59;5067032;28;20364;-64
2021/11/11 00:32:22;;;;;;;43.72;15.57;;;;;;;-149.78;100.00;50449.94;5057208;28;20056;-64
2021/11/11 00:34:51;;;;;;;39.33;15.63;;;;;;;-149.78;100.00;50451.88;5061311;28;20044;-64
2021/11/11 00:37:19;;;;;;;42.65;15.93;;;;;;;-149.78;100.00;50404.94;5069919;28;20554;-64
2021/11/11 00:39:45;;;;;;;40.88;15.63;;;;;;;-149.78;100.00;50447.97;5070498;28;20039;-64
2021/11/11 00:42:10;;;;;;;36.38;14.95;;;;;;;-149.78;100.00;50432.31;5067233;28;20498;-64
2021/11/11 00:44:36;;;;;;;40.20;14.68;;;;;;;-149.78;100.00;50432.31;5061215;28;20040;-64
2021/11/11 00:47:02;;;;;;;42.60;15.95;;;;;;;-149.78;100.00;50451.88;5060215;28;20037;-64
2021/11/11 00:49:28;;;;;;;37.63;15.77;;;;;;;-149.78;100.00;50432.31;5053880;28;20086;-64
2021/11/11 00:51:54;;;;;;;35.10;14.63;;;;;;;-149.78;100.00;50446.03;5054543;28;20139;-64
2021/11/11 00:54:21;;;;;;;34.35;13.38;;;;;;;-149.78;100.00;50436.25;5057365;28;20040;-64
2021/11/11 00:56:48;;;;;;;29.08;13.32;;;;;;;-149.78;100.00;50404.94;5057057;28;20032;-64
2021/11/11 00:59:13;;;;;;;29.23;12.40;;;;;;;-149.78;100.00;50451.88;5058089;28;20032;-64
2021/11/11 01:01:40;;;;;;;34.40;12.95;;;;;;;-149.78;100.00;50416.69;5066550;28;20040;-64
2021/11/11 01:04:05;;;;;;;34.85;13.40;;;;;;;-149.78;100.00;50404.94;5063872;28;20415;-64
2021/11/11 01:06:31;;;;;;;35.83;12.85;;;;;;;-149.78;100.00;50412.78;5065420;28;20036;-65
2021/11/11 01:08:58;;;;;;;33.50;13.95;;;;;;;-149.78;100.00;50426.47;5066416;28;20090;-65
2021/11/11 01:11:25;;;;;;;40.03;14.25;;;;;;;-149.78;100.00;50385.38;5055459;28;20044;-64
2021/11/11 01:13:50;;;;;;;35.67;13.98;;;;;;;-149.78;100.00;50447.97;5068413;28;20029;-64
2021/11/11 01:16:16;;;;;;;39.55;14.82;;;;;;;-149.78;100.00;50432.31;5060879;28;20494;-64
2021/11/11 01:18:42;;;;;;;38.25;14.80;;;;;;;-149.78;100.00;50440.16;5060955;28;20029;-64
2021/11/11 01:21:08;;;;;;;41.38;14.80;;;;;;;-149.78;100.00;50459.72;5063990;28;20044;-64
2021/11/11 01:23:35;;;;;;;33.45;14.27;;;;;;;-149.78;100.00;50467.53;5061477;28;20056;-64
2021/11/11 01:26:03;;;;;;;34.95;13.48;;;;;;;-149.78;100.00;50463.63;5060659;28;20053;-64
2021/11/11 01:28:29;;;;;;;36.30;13.77;;;;;;;-149.78;100.00;50467.53;5058019;28;20037;-64
2021/11/11 01:30:55;;;;;;;36.58;13.57;;;;;;;-149.78;100.00;50416.69;5063011;28;20036;-64
2021/11/11 01:33:21;;;;;;;36.50;14.43;;;;;;;-149.78;100.00;50473.41;5065092;28;20031;-64
2021/11/11 01:35:47;;;;;;;34.67;14.00;;;;;;;-149.78;100.00;50436.25;5064454;28;20115;-64
2021/11/11 01:38:13;;;;;;;37.63;14.55;;;;;;;-149.78;100.00;50440.16;5062351;28;20037;-64
2021/11/11 01:40:38;;;;;;;41.97;14.23;;;;;;;-149.78;100.00;50432.31;5057428;28;20037;-64
2021/11/11 01:43:07;;;;;;;41.92;15.02;;;;;;;-149.78;100.00;50459.72;5072904;28;20033;-64
2021/11/11 01:45:38;;;;;;;44.55;14.90;;;;;;;-149.78;100.00;50424.50;5069204;28;20037;-64
2021/11/11 01:48:06;;;;;;;44.53;15.07;;;;;;;-149.78;100.00;50440.16;5059017;28;20039;-64
2021/11/11 01:50:32;;;;;;;38.63;14.20;;;;;;;-149.78;100.00;50436.25;5063988;28;20044;-64
2021/11/11 01:52:59;;;;;;;47.15;15.60;;;;;;;-149.78;100.00;50451.88;5056675;28;20029;-64
2021/11/11 01:55:25;;;;;;;34.45;14.45;;;;;;;-149.78;100.00;50463.63;5064683;28;20151;-64
2021/11/11 01:57:51;;;;;;;38.70;14.82;;;;;;;-149.78;100.00;50463.63;5069585;28;20107;-64
2021/11/11 02:00:23;;;;;;;40.90;14.73;;;;;;;-149.78;100.00;50471.44;5061173;28;20859;-64
2021/11/11 02:02:54;;;;;;;37.72;13.95;;;;;;;-149.78;100.00;50430.38;5069901;28;20037;-64
2021/11/11 02:05:19;;;;;;;38.63;14.13;;;;;;;-149.78;100.00;50465.56;5071840;28;20040;-64
2021/11/11 02:07:45;;;;;;;37.15;14.38;;;;;;;-149.78;100.00;50397.13;5070736;28;20045;-65
2021/11/11 02:10:12;;;;;;;37.17;13.82;;;;;;;-149.78;100.00;50420.59;5063605;28;20060;-65
2021/11/11 02:12:38;;;;;;;45.05;15.27;;;;;;;-149.78;100.00;50428.41;5069344;28;20095;-65
2021/11/11 02:15:04;;;;;;;42.38;14.40;;;;;;;-149.78;100.00;50428.41;5068248;28;20040;-65
2021/11/11 02:17:31;;;;;;;44.15;15.25;;;;;;;-149.78;100.00;50447.97;5068909;28;20033;-64
2021/11/11 02:20:21;;;;;;;41.05;15.13;;;;;;;-149.78;100.00;50420.59;5073654;28;20108;-64
2021/11/11 02:22:47;;;;;;;38.70;13.95;;;;;;;-149.78;100.00;50440.16;5056776;28;20480;-64
2021/11/11 02:25:17;;;;;;;38.33;13.63;;;;;;;-149.78;100.00;50436.25;5067335;28;20029;-65
2021/11/11 02:27:44;;;;;;;38.58;14.73;;;;;;;-149.78;100.00;50483.19;5068273;28;20495;-65
2021/11/11 02:30:13;;;;;;;38.53;15.35;;;;;;;-149.78;100.00;50430.38;5063293;28;20033;-65
2021/11/11 02:32:40;;;;;;;41.83;15.13;;;;;;;-149.78;100.00;50428.41;5061772;28;20067;-64
2021/11/11 02:35:07;;;;;;;40.67;14.63;;;;;;;-149.78;100.00;50420.59;5054006;28;20511;-64
2021/11/11 02:37:34;;;;;;;38.83;15.10;;;;;;;-149.78;100.00;50447.97;5055185;28;20033;-64
2021/11/11 02:40:03;;;;;;;48.58;17.17;;;;;;;-149.78;100.00;50449.94;5066473;28;20123;-65
2021/11/11 02:42:29;;;;;;;42.55;15.63;;;;;;;-149.78;100.00;50404.94;5070741;28;20483;-65
2021/11/11 02:44:59;;;;;;;38.10;14.75;;;;;;;-149.78;100.00;50434.28;5071749;28;20048;-65
2021/11/11 02:47:25;;;;;;;38.05;14.15;;;;;;;-149.78;100.00;50418.63;5065983;28;20070;-64
2021/11/11 02:49:51;;;;;;;40.13;15.02;;;;;;;-149.78;100.00;50381.47;5072333;28;20048;-64
2021/11/11 02:52:18;;;;;;;43.60;16.42;;;;;;;-149.78;100.00;50412.78;5072064;28;20044;-64
2021/11/11 02:54:43;;;;;;;40.42;14.30;;;;;;;-149.78;100.00;50440.16;5079209;28;20482;-64
2021/11/11 02:57:29;;;;;;;47.85;15.90;;;;;;;-149.78;100.00;50401.03;5063577;28;20108;-64
2021/11/11 02:59:57;;;;;;;46.58;16.92;;;;;;;-149.78;100.00;50416.69;5052951;28;20378;-64
2021/11/11 03:02:26;;;;;;;40.95;15.30;;;;;;;-149.78;100.00;50440.16;5066737;28;20365;-64
2021/11/11 03:04:55;;;;;;;47.78;15.40;;;;;;;-149.78;100.00;50436.25;5061597;28;20036;-64
2021/11/11 03:07:21;;;;;;;44.63;16.00;;;;;;;-149.78;100.00;50432.31;5072384;28;20028;-64
2021/11/11 03:09:48;;;;;;;41.45;15.10;;;;;;;-149.78;100.00;50422.56;5071895;28;20041;-64
2021/11/11 03:12:14;;;;;;;42.47;15.93;;;;;;;-149.78;100.00;50436.25;5061793;28;20033;-64
2021/11/11 03:14:41;;;;;;;39.92;15.18;;;;;;;-149.78;100.00;50420.59;5061536;28;20029;-64
2021/11/11 03:17:07;;;;;;;44.95;15.63;;;;;;;-149.78;100.00;50408.84;5065433;28;20028;-64
2021/11/11 03:19:33;;;;;;;41.72;15.85;;;;;;;-149.78;100.00;50424.50;5061002;28;20075;-64
2021/11/11 03:22:02;;;;;;;47.70;15.52;;;;;;;-149.78;100.00;50436.25;5065394;28;20142;-64
2021/11/11 03:24:28;;;;;;;43.83;15.88;;;;;;;-149.78;100.00;50410.81;5068116;28;20041;-64
2021/11/11 03:26:54;;;;;;;45.10;16.27;;;;;;;-149.78;100.00;50436.25;5067515;28;20060;-65
2021/11/11 03:29:19;;;;;;;47.30;16.90;;;;;;;-149.78;100.00;50447.97;5055969;28;20063;-65
2021/11/11 03:31:45;;;;;;;48.13;15.77;;;;;;;-149.78;100.00;50475.34;5055615;28;20044;-65
2021/11/11 03:34:12;;;;;;;46.67;17.25;;;;;;;-149.78;100.00;50447.97;5065318;28;20036;-65
2021/11/11 03:36:38;;;;;;;46.20;15.93;;;;;;;-149.78;100.00;50426.47;5067497;28;20551;-65
2021/11/11 03:39:04;;;;;;;49.05;16.73;;;;;;;-149.78;100.00;50447.97;5063468;28;20066;-64
2021/11/11 03:41:30;;;;;;;49.92;17.70;;;;;;;-149.78;100.00;50416.69;5053029;28;20123;-64
2021/11/11 03:43:56;;;;;;;45.53;16.70;;;;;;;-149.78;100.00;50451.88;5054968;28;20089;-64
2021/11/11 03:46:22;;;;;;;46.45;16.98;;;;;;;-149.78;100.00;50440.16;5054980;28;20037;-64
2021/11/11 03:48:48;;;;;;;46.70;16.80;;;;;;;-149.78;100.00;50440.16;5061319;28;20036;-64
2021/11/11 03:51:14;;;;;;;48.92;17.80;;;;;;;-149.78;100.00;50424.50;5060123;28;20032;-64
2021/11/11 03:53:40;;;;;;;48.03;17.65;;;;;;;-149.78;100.00;50434.28;5065175;28;20039;-64
2021/11/11 03:56:05;;;;;;;43.97;16.33;;;;;;;-149.78;100.00;50428.41;5073825;28;20044;-64
2021/11/11 03:58:31;;;;;;;51.90;18.05;;;;;;;-149.78;100.00;50444.06;5051988;28;20032;-64
2021/11/11 04:00:57;;;;;;;43.67;15.75;;;;;;;-149.78;100.00;50420.59;5057086;28;20024;-64
2021/11/11 04:03:22;;;;;;;46.10;16.95;;;;;;;-149.78;100.00;50416.69;5069669;28;20842;-64
2021/11/11 04:05:48;;;;;;;47.42;17.33;;;;;;;-149.78;100.00;50479.28;5056385;28;20390;-64
2021/11/11 04:08:13;;;;;;;45.17;17.00;;;;;;;-149.78;100.00;50463.63;5070391;28;20040;-64
2021/11/11 04:10:39;;;;;;;48.08;17.50;;;;;;;-149.78;100.00;50440.16;5054022;28;20033;-64
2021/11/11 04:13:06;;;;;;;48.38;17.42;;;;;;;-149.78;100.00;50467.53;5061897;28;20116;-64
2021/11/11 04:15:33;;;;;;;51.78;17.55;;;;;;;-149.78;100.00;50440.16;5065110;28;20442;-64
2021/11/11 04:17:59;;;;;;;53.70;18.13;;;;;;;-149.78;100.00;50463.63;5055166;28;20472;-64
2021/11/11 04:20:26;;;;;;;49.85;17.15;;;;;;;-149.78;100.00;50459.72;5068843;28;20040;-64
2021/11/11 04:22:53;;;;;;;45.83;17.48;;;;;;;-149.78;100.00;50447.97;5060832;28;20032;-64
2021/11/11 04:25:41;;;;;;;52.42;17.73;;;;;;;-149.78;100.00;50473.41;5069269;28;20119;-64
2021/11/11 04:28:13;;;;;;;54.95;18.58;;;;;;;-149.78;100.00;50432.31;5069333;28;20068;-64
2021/11/11 04:30:40;;;;;;;51.90;18.07;;;;;;;-149.78;100.00;50401.03;5068368;28;20115;-64
2021/11/11 04:33:08;;;;;;;47.65;17.05;;;;;;;-149.78;100.00;50467.53;5058269;28;20039;-64
2021/11/11 04:35:34;;;;;;;46.25;16.80;;;;;;;-149.78;100.00;50401.03;5051723;28;20037;-64
2021/11/11 05:01:49;;;;;;;57.72;19.38;;;;;;;-149.78;100.00;50487.09;5057036;28;20056;-65
2021/11/11 05:04:15;;;;;;;54.45;18.60;;;;;;;-149.78;100.00;50479.28;5058782;28;20032;-65
2021/11/11 05:06:41;;;;;;;51.00;17.67;;;;;;;-149.78;100.00;50438.19;5058776;28;20059;-65
2021/11/11 05:09:06;;;;;;;52.03;17.63;;;;;;;-149.78;100.00;50424.50;5057032;28;20041;-65
2021/11/11 05:11:32;;;;;;;56.90;20.38;;;;;;;-149.78;100.00;50416.69;5061998;28;20387;-65
2021/11/11 05:13:58;;;;;;;57.20;18.38;;;;;;;-149.78;100.00;50451.88;5056742;28;20037;-65
2021/11/11 05:16:24;;;;;;;51.10;18.58;;;;;;;-149.78;100.00;50455.81;5055872;28;20412;-65
2021/11/11 05:18:49;;;;;;;55.38;19.02;;;;;;;-149.78;100.00;50440.16;5059267;28;20029;-64
2021/11/11 05:21:15;;;;;;;51.97;17.83;;;;;;;-149.78;100.00;50457.75;5058020;28;20497;-64
2021/11/11 05:23:41;;;;;;;62.67;18.17;;;;;;;-149.78;100.00;50459.72;5062384;28;20051;-64
2021/11/11 05:26:07;;;;;;;57.83;18.13;;;;;;;-149.78;100.00;50485.13;5069775;28;20040;-64
2021/11/11 05:28:33;;;;;;;57.17;18.60;;;;;;;-149.78;100.00;50471.44;5065374;28;20558;-64
2021/11/11 05:31:00;;;;;;;53.05;17.85;;;;;;;-149.78;100.00;50457.75;5063316;28;20543;-64
2021/11/11 05:33:25;;;;;;;55.30;19.40;;;;;;;-149.78;100.00;50465.56;5061165;28;20090;-64
2021/11/11 05:35:51;;;;;;;58.00;18.77;;;;;;;-149.78;100.00;50477.31;5059277;28;20119;-64
2021/11/11 05:38:17;;;;;;;57.95;18.08;;;;;;;-149.78;100.00;50463.63;5068266;28;20040;-64
2021/11/11 05:40:43;;;;;;;64.50;19.88;;;;;;;-149.78;100.00;50467.53;5055369;28;20106;-64
2021/11/11 05:43:09;;;;;;;58.40;19.17;;;;;;;-149.78;100.00;50494.91;5064514;28;20041;-64
2021/11/11 05:45:35;;;;;;;61.63;21.23;;;;;;;-149.78;100.00;50491.00;5057284;28;20044;-64
2021/11/11 05:48:02;;;;;;;59.58;19.75;;;;;;;-149.78;100.00;50483.19;5055798;28;20599;-64
2021/11/11 05:50:29;;;;;;;65.88;20.42;;;;;;;-149.78;100.00;50459.72;5056686;28;20028;-65
2021/11/11 05:52:55;;;;;;;66.68;19.88;;;;;;;-149.78;100.00;50463.63;5056450;28;20114;-64
2021/11/11 05:55:21;;;;;;;59.75;19.50;;;;;;;-149.78;100.00;50424.50;5061434;28;20033;-64
2021/11/11 05:57:47;;;;;;;67.85;19.77;;;;;;;-149.78;100.00;50498.81;5060391;28;20480;-64
2021/11/11 06:00:16;;;;;;;61.70;18.38;;;;;;;-149.78;100.00;50481.22;5056672;28;20036;-64
2021/11/11 06:02:43;;;;;;;58.50;18.52;;;;;;;-149.78;100.00;50494.91;5059941;28;20048;-64
2021/11/11 06:05:09;;;;;;;60.80;18.60;;;;;;;-149.78;100.00;50479.28;5055201;28;20052;-64
2021/11/11 06:07:35;;;;;;;58.85;19.70;;;;;;;-149.78;100.00;50479.28;5065042;28;20067;-65
2021/11/11 06:10:02;;;;;;;67.45;19.40;;;;;;;-149.78;100.00;50483.19;5066063;28;20036;-65
2021/11/11 06:12:28;;;;;;;64.97;19.33;;;;;;;-149.78;100.00;50473.41;5065932;28;20116;-65
2021/11/11 06:14:54;;;;;;;68.43;19.75;;;;;;;-149.78;100.00;50498.81;5067911;28;20119;-64
2021/11/11 06:17:19;;;;;;;67.75;19.17;;;;;;;-149.78;100.00;50440.16;5070494;28;20055;-64
2021/11/11 06:19:46;;;;;;;64.68;18.05;;;;;;;-149.78;100.00;50502.75;5056488;28;20033;-65
2021/11/11 06:22:12;;;;;;;62.80;18.38;;;;;;;-149.78;100.00;50502.75;5063609;28;20361;-64
2021/11/11 06:24:37;;;;;;;68.25;19.75;;;;;;;-149.78;100.00;50440.16;5054869;28;20086;-64
2021/11/11 06:27:03;;;;;;;68.68;20.17;;;;;;;-149.78;100.00;50479.28;5067347;28;20086;-64
2021/11/11 06:29:29;;;;;;;65.90;19.65;;;;;;;-149.78;100.00;50471.44;5059262;28;20389;-64
2021/11/11 06:31:55;;;;;;;61.38;17.85;;;;;;;-149.78;100.00;50447.97;5059778;28;20032;-64
2021/11/11 06:34:21;;;;;;;68.95;19.30;;;;;;;-149.78;100.00;50508.59;5057163;28;20041;-65
2021/11/11 06:36:46;;;;;;;68.25;18.90;;;;;;;-149.78;100.00;50428.41;5059500;28;20047;-65
2021/11/11 06:39:12;;;;;;;61.65;17.95;;;;;;;-149.78;100.00;50440.16;5052502;28;20037;-64
2021/11/11 06:41:37;;;;;;;66.32;20.80;;;;;;;-149.78;100.00;50510.56;5056134;28;20033;-64
2021/11/11 06:44:04;;;;;;;67.57;19.30;;;;;;;-149.78;100.00;50479.28;5055842;28;20040;-64
2021/11/11 06:46:31;;;;;;;59.42;17.98;;;;;;;-149.78;100.00;50479.28;5066733;28;20032;-64
2021/11/11 06:48:58;;;;;;;64.90;17.75;;;;;;;-149.78;100.00;50471.44;5058272;28;20041;-64
2021/11/11 06:51:23;;;;;;;63.42;17.45;;;;;;;-149.78;100.00;50494.91;5058595;28;20052;-64
2021/11/11 06:53:49;;;;;;;60.13;17.13;;;;;;;-149.78;100.00;50475.34;5064959;28;20145;-65
2021/11/11 06:56:15;;;;;;;63.92;19.63;;;;;;;-149.78;100.00;50438.19;5068304;28;20063;-64
2021/11/11 06:58:41;;;;;;;59.63;17.55;;;;;;;-149.78;100.00;50508.59;5071924;28;20024;-65
2021/11/11 07:01:07;;;;;;;59.65;17.50;;;;;;;-149.78;100.00;50489.03;5069787;28;20044;-64
2021/11/11 07:03:33;;;;;;;59.13;16.40;;;;;;;-149.78;100.00;50485.13;5068908;28;20525;-64
2021/11/11 07:05:59;;;;;;;60.17;18.58;;;;;;;-149.78;100.00;50483.19;5071106;28;20044;-64
2021/11/11 07:08:25;;;;;;;51.45;16.92;;;;;;;-149.78;100.00;50487.09;5069330;28;20090;-64
2021/11/11 07:10:52;;;;;;;54.72;16.13;;;;;;;-149.78;100.00;50500.78;5069644;28;20122;-64
2021/11/11 07:13:19;;;;;;;51.35;16.35;;;;;;;-149.78;100.00;50475.34;5067300;28;20041;-65
2021/11/11 07:15:45;;;;;;;49.72;16.02;;;;;;;-149.78;100.00;50502.75;5069445;28;20033;-64
2021/11/11 07:18:13;;;;;;;57.92;17.60;;;;;;;-149.78;100.00;50518.38;5038859;28;20050;-64
2021/11/11 07:20:43;;;;;;;46.95;15.43;;;;;;;-149.78;100.00;50475.34;5067578;28;20035;-64
2021/11/11 07:23:10;;;;;;;54.65;15.45;;;;;;;-149.78;100.00;50528.16;5068516;28;20067;-64
2021/11/11 07:25:36;;;;;;;55.78;16.58;;;;;;;-149.78;100.00;50528.16;5071430;28;20024;-65
2021/11/11 07:28:01;;;;;;;50.08;15.85;;;;;;;-149.78;100.00;50494.91;5072141;28;20051;-64
2021/11/11 07:30:28;;;;;;;51.35;15.32;;;;;;;-149.78;100.00;50494.91;5069214;28;20036;-65
2021/11/11 07:32:54;;;;;;;45.55;15.55;;;;;;;-149.78;100.00;50463.63;5061663;28;20112;-66
2021/11/11 07:35:19;;;;;;;55.70;16.60;;;;;;;-149.78;100.00;50479.28;5057918;28;20128;-65
2021/11/11 07:37:48;;;;;;;55.72;16.48;;;;;;;-149.78;100.00;50498.81;5067148;28;20024;-65
2021/11/11 07:40:17;;;;;;;58.40;16.02;;;;;;;-149.78;100.00;50487.09;5068834;28;20044;-64
2021/11/11 07:42:44;;;;;;;56.45;16.75;;;;;;;-149.78;100.00;50498.81;5064614;28;20024;-65
2021/11/11 07:45:10;;;;;;;50.25;15.45;;;;;;;-149.78;100.00;50502.75;5067247;28;20347;-64
2021/11/11 07:47:37;;;;;;;52.88;16.45;;;;;;;-149.78;100.00;50491.00;5059859;28;20037;-65
2021/11/11 07:50:05;;;;;;;52.20;16.00;;;;;;;-149.78;100.00;50492.97;5069221;28;20127;-66
2021/11/11 07:52:31;;;;;;;50.22;15.80;;;;;;;-149.78;100.00;50467.53;5059575;28;20032;-65
2021/11/11 07:54:58;;;;;;;49.45;14.35;;;;;;;-149.78;100.00;50485.13;5066048;28;20392;-65
2021/11/11 07:57:27;;;;;;;52.67;15.88;;;;;;;-149.78;100.00;50487.09;5065935;28;20047;-65
2021/11/11 07:59:53;;;;;;;45.80;14.85;;;;;;;-149.78;100.00;50487.09;5054322;28;20033;-65
2021/11/11 08:02:20;;;;;;;45.13;15.30;;;;;;;-149.78;100.00;50491.00;5064322;28;20536;-65
2021/11/11 08:04:47;;;;;;;42.33;14.77;;;;;;;-149.78;100.00;50479.28;5063067;28;20115;-66
2021/11/11 08:07:17;;;;;;;52.45;15.82;;;;;;;-149.78;100.00;50483.19;5067697;28;20028;-65
2021/11/11 08:09:50;;;;;;;43.67;15.20;;;;;;;-149.78;100.00;50467.53;5066514;28;20045;-66
2021/11/11 08:12:16;;;;;;;42.22;14.13;;;;;;;-149.78;100.00;50504.69;5062590;28;20056;-66
2021/11/11 08:14:42;;;;;;;40.38;13.77;;;;;;;-149.78;100.00;50483.19;5065011;28;20122;-66
2021/11/11 08:17:10;;;;;;;37.05;11.95;;;;;;;-149.78;100.00;50471.44;5068676;28;20062;-66
2021/11/11 08:19:36;;;;;;;32.22;11.63;;;;;;;-149.78;100.00;50483.19;5067098;28;20024;-65
2021/11/11 08:22:01;;;;;;;30.48;11.55;;;;;;;-149.78;100.00;50467.53;5067986;28;20033;-64
2021/11/11 08:24:27;;;;;;;25.98;9.88;;;;;;;-149.78;100.00;50463.63;5069766;28;20116;-64
2021/11/11 08:26:52;;;;;;;27.70;9.70;;;;;;;-149.78;100.00;50467.53;5069474;28;20036;-63
2021/11/11 08:29:18;;;;;;;29.30;9.52;;;;;;;-149.78;100.00;50477.31;5067096;28;20051;-63
2021/11/11 08:31:44;;;;;;;23.77;9.82;;;;;;;-149.78;100.00;50481.22;5064241;28;20365;-64
2021/11/11 08:34:10;;;;;;;22.55;9.35;;;;;;;-149.78;100.00;50465.56;5068191;28;20059;-64
2021/11/11 08:36:36;;;;;;;26.65;9.98;;;;;;;-149.78;100.00;50453.84;5066842;28;20048;-65
2021/11/11 08:39:03;;;;;;;25.50;10.27;;;;;;;-149.78;100.00;50444.06;5061209;28;20040;-60
2021/11/11 08:41:29;;;;;;;28.17;9.32;;;;;;;-149.78;100.00;50475.34;5065314;28;20032;-60
2021/11/11 08:43:57;;;;;;;23.02;9.68;;;;;;;-149.78;100.00;50473.41;5067015;28;20057;-60
2021/11/11 08:46:24;;;;;;;25.33;9.82;;;;;;;-149.78;100.00;50465.56;5063124;28;20506;-61
2021/11/11 08:48:50;;;;;;;22.95;9.43;;;;;;;-149.78;100.00;50447.97;5058798;28;20033;-60
2021/11/11 08:51:15;;;;;;;22.67;8.60;;;;;;;-149.78;100.00;50479.28;5053378;28;20047;-60
2021/11/11 08:53:41;;;;;;;23.75;8.82;;;;;;;-149.78;100.00;50463.63;5061329;28;20032;-60
2021/11/11 08:56:07;;;;;;;21.50;8.70;;;;;;;-149.78;100.00;50455.81;5069454;28;20821;-60
2021/11/11 08:58:36;;;;;;;25.20;9.88;;;;;;;-149.78;100.00;50455.81;5068867;28;20740;-60
2021/11/11 09:01:05;;;;;;;26.73;10.25;;;;;;;-149.78;100.00;50463.63;5062947;28;20112;-61
2021/11/11 09:03:31;;;;;;;24.58;9.93;;;;;;;-149.78;100.00;50479.28;5054813;28;20044;-60
2021/11/11 09:05:57;;;;;;;24.35;9.75;;;;;;;-149.78;100.00;50475.34;5068322;28;20066;-60
2021/11/11 09:08:22;;;;;;;23.80;9.77;;;;;;;-149.78;100.00;50463.63;5061840;28;20045;-60
2021/11/11 09:10:49;;;;;;;24.67;9.65;;;;;;;-149.78;100.00;50432.31;5066306;28;20037;-61
2021/11/11 09:13:14;;;;;;;27.17;10.00;;;;;;;-149.78;100.00;50487.09;5057596;28;20060;-61
2021/11/11 09:15:40;;;;;;;26.55;10.25;;;;;;;-149.78;100.00;50451.88;5064837;28;20064;-60
2021/11/11 09:18:07;;;;;;;27.25;10.80;;;;;;;-149.78;100.00;50451.88;5055572;28;20401;-60
2021/11/11 09:20:34;;;;;;;25.33;10.88;;;;;;;-149.78;100.00;50471.44;5059707;28;20085;-61
2021/11/11 09:23:01;;;;;;;27.38;10.25;;;;;;;-149.78;100.00;50451.88;5064913;28;20127;-60
2021/11/11 09:25:30;;;;;;;26.55;10.77;;;;;;;-149.78;100.00;50459.72;5074908;28;20060;-60
2021/11/11 09:27:57;;;;;;;24.80;9.77;;;;;;;-149.78;100.00;50434.28;5070946;28;20115;-61
2021/11/11 09:30:27;;;;;;;24.15;9.32;;;;;;;-149.78;100.00;50463.63;5059812;28;20025;-61
2021/11/11 09:32:53;;;;;;;21.40;9.68;;;;;;;-149.78;100.00;50436.25;5060741;28;20059;-63
2021/11/11 09:35:19;;;;;;;22.20;8.90;;;;;;;-149.78;100.00;50479.28;5063008;28;20040;-62
2021/11/11 09:37:45;;;;;;;19.02;8.70;;;;;;;-149.78;100.00;50459.72;5061093;28;20029;-62
2021/11/11 09:40:15;;;;;;;20.48;8.88;;;;;;;-149.78;100.00;50455.81;5062757;28;20574;-62
2021/11/11 09:42:42;;;;;;;16.25;7.82;;;;;;;-149.78;100.00;50463.63;5061539;28;20028;-62
2021/11/11 09:45:10;;;;;;;20.10;8.23;;;;;;;-149.78;100.00;50404.94;5063063;28;20041;-62
2021/11/11 09:47:37;;;;;;;16.30;7.03;;;;;;;-149.78;100.00;50465.56;5061622;28;20032;-62
2021/11/11 09:50:05;;;;;;;19.85;8.55;;;;;;;-149.78;100.00;50447.97;5064755;28;20510;-62
2021/11/11 09:52:30;;;;;;;19.52;8.48;;;;;;;-149.78;100.00;50455.81;5071896;28;20036;-62
2021/11/11 10:00:26;;;;;;;20.38;6.82;;;;;;;-149.78;100.00;50440.16;5060724;28;20035;-63
2021/11/11 10:02:54;;;;;;;18.73;7.68;;;;;;;-149.78;100.00;50487.09;5057212;28;20404;-62
2021/11/11 10:05:21;;;;;;;19.15;7.13;;;;;;;-149.78;100.00;50444.06;5067215;28;20029;-63
2021/11/11 10:07:46;;;;;;;15.55;6.82;;;;;;;-149.78;100.00;50432.31;5068436;28;20384;-61
2021/11/11 10:10:34;;;;;;;18.00;7.63;;;;;;;-149.78;100.00;50463.63;5061900;28;20037;-61
2021/11/11 10:13:10;;;;;;;16.60;6.72;;;;;;;-149.78;100.00;50440.16;5064629;28;20386;-62
2021/11/11 10:15:59;;;;;;;16.90;7.30;;;;;;;-149.78;100.00;50447.97;5059904;28;20055;-62
2021/11/11 10:18:37;;;;;;;19.23;7.13;;;;;;;-149.78;100.00;50434.28;5059994;28;20082;-62
2021/11/11 10:21:17;;;;;;;17.20;7.78;;;;;;;-149.78;100.00;50487.09;5069271;28;20032;-62
2021/11/11 10:23:43;;;;;;;18.40;7.38;;;;;;;-149.78;100.00;50424.50;5069338;28;20033;-62
2021/11/11 10:26:25;;;;;;;18.17;7.22;;;;;;;-149.78;100.00;50416.69;5070987;28;20534;-62
2021/11/11 10:28:50;;;;;;;17.20;7.40;;;;;;;-149.78;100.00;50428.41;5053748;28;20098;-62
2021/11/11 10:31:20;;;;;;;20.15;7.97;;;;;;;-149.78;100.00;50428.41;5061473;28;20029;-62
2021/11/11 10:34:18;;;;;;;19.88;7.85;;;;;;;-149.78;100.00;50424.50;5058089;28;20433;-62
2021/11/11 10:36:52;;;;;;;23.65;7.45;;;;;;;-149.78;100.00;50389.31;5002824;28;20071;-62
2021/11/11 10:39:28;;;;;;;19.85;8.23;;;;;;;-149.78;100.00;50436.25;5057632;28;20037;-62
2021/11/11 10:41:57;;;;;;;20.67;7.43;;;;;;;-149.78;100.00;50416.69;5056895;28;20396;-62
2021/11/11 10:44:31;;;;;;;16.95;7.65;;;;;;;-149.78;100.00;50385.38;5054374;28;20032;-62
2021/11/11 10:47:01;;;;;;;19.90;7.18;;;;;;;-149.78;100.00;50404.94;5062605;28;20127;-62
2021/11/11 10:49:34;;;;;;;15.93;6.57;;;;;;;-149.78;100.00;50393.22;5062633;28;20399;-62
2021/11/11 10:52:24;;;;;;;13.70;7.13;;;;;;;-149.78;100.00;50424.50;5055990;28;20032;-62
2021/11/11 10:54:58;;;;;;;17.73;6.82;;;;;;;-149.78;100.00;50416.69;5063145;28;20051;-61
2021/11/11 10:57:41;;;;;;;41.47;9.00;;;;;;;-149.78;100.00;50389.31;5057388;28;20653;-62
2021/11/11 11:00:37;;;;;;;20.05;7.28;;;;;;;-149.78;100.00;50397.13;5063979;28;20029;-62
2021/11/11 11:03:05;;;;;;;14.30;6.82;;;;;;;-149.78;100.00;50440.16;5062619;28;20036;-61
2021/11/11 11:05:45;;;;;;;14.50;7.03;;;;;;;-149.78;100.00;50397.13;5066154;28;20028;-61
2021/11/11 11:08:15;;;;;;;16.25;7.60;;;;;;;-149.78;100.00;50369.75;5061715;28;20039;-62
2021/11/11 11:10:44;;;;;;;17.60;7.50;;;;;;;-149.78;100.00;50420.59;5058321;28;20035;-62
2021/11/11 11:13:18;;;;;;;21.55;7.63;;;;;;;-149.78;100.00;50397.13;5063810;28;20040;-62
2021/11/11 11:16:05;;;;;;;20.38;8.65;;;;;;;-149.78;100.00;50401.03;5060809;28;20032;-62
2021/11/11 11:18:37;;;;;;;19.60;8.15;;;;;;;-149.78;100.00;50393.22;5055033;28;20017;-62
2021/11/11 11:21:14;;;;;;;19.35;8.50;;;;;;;-149.78;100.00;50463.63;5057020;28;20037;-62
2021/11/11 11:23:50;;;;;;;18.88;7.82;;;;;;;-149.78;100.00;50440.16;5061568;28;20025;-61
2021/11/11 11:26:25;;;;;;;17.92;7.65;;;;;;;-149.78;100.00;50451.88;5068017;28;20024;-61
2021/11/11 11:28:52;;;;;;;17.67;7.45;;;;;;;-149.78;100.00;50375.63;5057241;28;20095;-61